sensor_id;sensor_type;location;lat;lon;timestamp;pressure;altitude;pressure_sealevel;temperature;humidity
58072;BME280;60383;46.626;18.866;2024-03-08T00:00:58;100762.06;;;5.51;100.00
58072;BME280;60383;46.626;18.866;2024-03-08T00:03:24;100761.06;;;5.52;100.00
58072;BME280;60383;46.626;18.866;2024-03-08T00:05:49;100757.56;;;5.39;100.00
58072;BME280;60383;46.626;18.866;2024-03-08T00:08:15;100751.91;;;5.78;100.00
58072;BME280;60383;46.626;18.866;2024-03-08T00:10:40;100751.13;;;5.64;100.00
58072;BME280;60383;46.626;18.866;2024-03-08T00:13:06;100755.59;;;5.65;100.00
58072;BME280;60383;46.626;18.866;2024-03-08T00:15:31;100746.00;;;5.48;100.00
58072;BME280;60383;46.626;18.866;2024-03-08T00:17:57;100752.28;;;5.49;100.00
58072;BME280;60383;46.626;18.866;2024-03-08T00:20:23;100753.44;;;5.33;100.00
58072;BME280;60383;46.626;18.866;2024-03-08T00:22:48;100753.91;;;5.27;100.00
58072;BME280;60383;46.626;18.866;2024-03-08T00:25:14;100747.31;;;5.42;100.00
58072;BME280;60383;46.626;18.866;2024-03-08T00:27:40;100750.56;;;5.23;100.00
58072;BME280;60383;46.626;18.866;2024-03-08T00:30:07;100747.84;;;5.48;100.00
58072;BME280;60383;46.626;18.866;2024-03-08T00:32:33;100749.81;;;5.46;100.00
58072;BME280;60383;46.626;18.866;2024-03-08T00:34:59;100747.09;;;5.46;100.00
58072;BME280;60383;46.626;18.866;2024-03-08T00:37:24;100743.53;;;5.56;100.00
58072;BME280;60383;46.626;18.866;2024-03-08T00:39:51;100749.50;;;5.62;100.00
58072;BME280;60383;46.626;18.866;2024-03-08T00:42:17;100746.84;;;5.84;100.00
58072;BME280;60383;46.626;18.866;2024-03-08T00:44:43;100747.47;;;5.76;100.00
58072;BME280;60383;46.626;18.866;2024-03-08T00:47:08;100739.84;;;5.57;100.00
58072;BME280;60383;46.626;18.866;2024-03-08T00:49:34;100743.41;;;5.82;100.00
58072;BME280;60383;46.626;18.866;2024-03-08T00:52:02;100741.19;;;5.87;100.00
58072;BME280;60383;46.626;18.866;2024-03-08T00:54:27;100740.78;;;5.81;100.00
58072;BME280;60383;46.626;18.866;2024-03-08T00:56:53;100740.94;;;5.90;100.00
58072;BME280;60383;46.626;18.866;2024-03-08T00:59:18;100731.31;;;5.98;100.00
58072;BME280;60383;46.626;18.866;2024-03-08T01:01:43;100739.19;;;6.14;100.00
58072;BME280;60383;46.626;18.866;2024-03-08T01:04:10;100742.13;;;5.99;100.00
58072;BME280;60383;46.626;18.866;2024-03-08T01:06:35;100734.28;;;5.95;100.00
58072;BME280;60383;46.626;18.866;2024-03-08T01:09:01;100736.88;;;5.96;100.00
58072;BME280;60383;46.626;18.866;2024-03-08T01:11:27;100735.72;;;5.76;100.00
58072;BME280;60383;46.626;18.866;2024-03-08T01:13:53;100741.75;;;5.68;100.00
58072;BME280;60383;46.626;18.866;2024-03-08T01:16:19;100746.19;;;5.69;100.00
58072;BME280;60383;46.626;18.866;2024-03-08T01:18:47;100733.44;;;5.58;100.00
58072;BME280;60383;46.626;18.866;2024-03-08T01:21:13;100735.97;;;5.84;100.00
58072;BME280;60383;46.626;18.866;2024-03-08T01:23:38;100731.94;;;5.90;100.00
58072;BME280;60383;46.626;18.866;2024-03-08T01:26:04;100727.59;;;5.87;100.00
58072;BME280;60383;46.626;18.866;2024-03-08T01:28:30;100731.44;;;5.85;100.00
58072;BME280;60383;46.626;18.866;2024-03-08T01:30:55;100731.56;;;5.83;100.00
58072;BME280;60383;46.626;18.866;2024-03-08T01:33:23;100728.59;;;5.51;100.00
58072;BME280;60383;46.626;18.866;2024-03-08T01:35:49;100723.72;;;5.43;100.00
58072;BME280;60383;46.626;18.866;2024-03-08T01:38:14;100729.72;;;5.24;100.00
58072;BME280;60383;46.626;18.866;2024-03-08T01:40:40;100729.13;;;5.32;100.00
58072;BME280;60383;46.626;18.866;2024-03-08T01:43:25;100727.31;;;5.43;100.00
58072;BME280;60383;46.626;18.866;2024-03-08T01:45:52;100722.13;;;5.40;100.00
58072;BME280;60383;46.626;18.866;2024-03-08T01:48:18;100712.44;;;5.25;100.00
58072;BME280;60383;46.626;18.866;2024-03-08T01:50:47;100723.56;;;5.33;100.00
58072;BME280;60383;46.626;18.866;2024-03-08T01:53:13;100721.28;;;5.51;100.00
58072;BME280;60383;46.626;18.866;2024-03-08T01:55:40;100721.16;;;5.53;100.00
58072;BME280;60383;46.626;18.866;2024-03-08T01:58:09;100716.03;;;5.61;100.00
58072;BME280;60383;46.626;18.866;2024-03-08T02:00:35;100723.34;;;5.72;100.00
58072;BME280;60383;46.626;18.866;2024-03-08T02:03:02;100719.44;;;5.76;100.00
58072;BME280;60383;46.626;18.866;2024-03-08T02:05:27;100720.41;;;5.75;100.00
58072;BME280;60383;46.626;18.866;2024-03-08T02:07:53;100711.72;;;5.70;100.00
58072;BME280;60383;46.626;18.866;2024-03-08T02:10:19;100714.00;;;5.87;100.00
58072;BME280;60383;46.626;18.866;2024-03-08T02:12:46;100710.75;;;6.06;100.00
58072;BME280;60383;46.626;18.866;2024-03-08T02:15:12;100717.78;;;6.09;100.00
58072;BME280;60383;46.626;18.866;2024-03-08T02:17:37;100722.97;;;6.01;100.00
58072;BME280;60383;46.626;18.866;2024-03-08T02:20:03;100723.41;;;5.83;100.00
58072;BME280;60383;46.626;18.866;2024-03-08T02:22:30;100728.91;;;5.70;100.00
58072;BME280;60383;46.626;18.866;2024-03-08T02:24:58;100725.13;;;5.49;100.00
58072;BME280;60383;46.626;18.866;2024-03-08T02:27:24;100722.91;;;5.54;100.00
58072;BME280;60383;46.626;18.866;2024-03-08T02:29:56;100727.38;;;5.55;100.00
58072;BME280;60383;46.626;18.866;2024-03-08T02:32:25;100721.72;;;5.58;100.00
58072;BME280;60383;46.626;18.866;2024-03-08T02:34:51;100717.31;;;5.44;100.00
58072;BME280;60383;46.626;18.866;2024-03-08T02:37:17;100719.81;;;5.47;100.00
58072;BME280;60383;46.626;18.866;2024-03-08T02:39:43;100721.59;;;5.35;100.00
58072;BME280;60383;46.626;18.866;2024-03-08T02:42:08;100724.97;;;5.39;100.00
58072;BME280;60383;46.626;18.866;2024-03-08T02:44:34;100719.53;;;5.39;100.00
58072;BME280;60383;46.626;18.866;2024-03-08T02:46:59;100721.94;;;5.55;100.00
58072;BME280;60383;46.626;18.866;2024-03-08T02:49:26;100725.56;;;5.67;100.00
58072;BME280;60383;46.626;18.866;2024-03-08T02:51:54;100726.88;;;5.61;100.00
58072;BME280;60383;46.626;18.866;2024-03-08T02:54:20;100726.41;;;5.67;100.00
58072;BME280;60383;46.626;18.866;2024-03-08T02:56:46;100723.63;;;5.91;100.00
58072;BME280;60383;46.626;18.866;2024-03-08T02:59:12;100725.25;;;5.94;100.00
58072;BME280;60383;46.626;18.866;2024-03-08T03:01:38;100725.50;;;5.80;100.00
58072;BME280;60383;46.626;18.866;2024-03-08T03:04:04;100725.44;;;5.68;100.00
58072;BME280;60383;46.626;18.866;2024-03-08T03:06:30;100719.97;;;5.57;100.00
58072;BME280;60383;46.626;18.866;2024-03-08T03:08:56;100725.91;;;5.26;100.00
58072;BME280;60383;46.626;18.866;2024-03-08T03:11:22;100723.19;;;5.26;100.00
58072;BME280;60383;46.626;18.866;2024-03-08T03:13:48;100727.22;;;5.21;100.00
58072;BME280;60383;46.626;18.866;2024-03-08T03:16:20;100732.25;;;5.14;100.00
58072;BME280;60383;46.626;18.866;2024-03-08T03:18:46;100723.03;;;5.04;100.00
58072;BME280;60383;46.626;18.866;2024-03-08T03:21:13;100730.09;;;5.06;100.00
58072;BME280;60383;46.626;18.866;2024-03-08T03:23:39;100728.91;;;5.10;100.00
58072;BME280;60383;46.626;18.866;2024-03-08T03:26:05;100729.59;;;5.25;100.00
58072;BME280;60383;46.626;18.866;2024-03-08T03:28:36;100733.41;;;5.23;100.00
58072;BME280;60383;46.626;18.866;2024-03-08T03:31:06;100728.44;;;5.17;100.00
58072;BME280;60383;46.626;18.866;2024-03-08T03:33:31;100729.94;;;5.21;100.00
58072;BME280;60383;46.626;18.866;2024-03-08T03:35:59;100732.69;;;5.32;100.00
58072;BME280;60383;46.626;18.866;2024-03-08T03:38:26;100727.72;;;5.26;100.00
58072;BME280;60383;46.626;18.866;2024-03-08T03:40:53;100735.34;;;5.21;100.00
58072;BME280;60383;46.626;18.866;2024-03-08T03:43:22;100737.22;;;5.20;100.00
58072;BME280;60383;46.626;18.866;2024-03-08T03:45:48;100727.34;;;5.19;100.00
58072;BME280;60383;46.626;18.866;2024-03-08T03:48:13;100721.22;;;5.28;100.00
58072;BME280;60383;46.626;18.866;2024-03-08T03:50:39;100726.88;;;5.25;100.00
58072;BME280;60383;46.626;18.866;2024-03-08T03:53:06;100731.31;;;5.26;100.00
58072;BME280;60383;46.626;18.866;2024-03-08T03:55:35;100729.53;;;5.14;100.00
58072;BME280;60383;46.626;18.866;2024-03-08T03:58:02;100729.13;;;5.32;100.00
58072;BME280;60383;46.626;18.866;2024-03-08T04:00:28;100729.13;;;5.32;100.00
58072;BME280;60383;46.626;18.866;2024-03-08T04:02:53;100730.44;;;5.26;100.00
58072;BME280;60383;46.626;18.866;2024-03-08T04:05:20;100725.25;;;5.47;100.00
58072;BME280;60383;46.626;18.866;2024-03-08T04:07:45;100732.75;;;5.43;100.00
58072;BME280;60383;46.626;18.866;2024-03-08T04:10:11;100725.25;;;5.47;100.00
58072;BME280;60383;46.626;18.866;2024-03-08T04:12:37;100731.81;;;5.56;100.00
58072;BME280;60383;46.626;18.866;2024-03-08T04:15:03;100724.78;;;5.53;100.00
58072;BME280;60383;46.626;18.866;2024-03-08T04:17:30;100730.22;;;5.53;100.00
58072;BME280;60383;46.626;18.866;2024-03-08T04:19:56;100732.28;;;5.50;100.00
58072;BME280;60383;46.626;18.866;2024-03-08T04:22:22;100734.66;;;5.54;100.00
58072;BME280;60383;46.626;18.866;2024-03-08T04:24:47;100729.88;;;5.69;100.00
58072;BME280;60383;46.626;18.866;2024-03-08T04:27:13;100735.59;;;5.78;100.00
58072;BME280;60383;46.626;18.866;2024-03-08T04:29:40;100730.41;;;5.74;100.00
58072;BME280;60383;46.626;18.866;2024-03-08T04:32:06;100738.06;;;5.81;100.00
58072;BME280;60383;46.626;18.866;2024-03-08T04:34:33;100735.78;;;5.52;100.00
58072;BME280;60383;46.626;18.866;2024-03-08T04:37:00;100736.91;;;5.60;100.00
58072;BME280;60383;46.626;18.866;2024-03-08T04:39:26;100734.66;;;5.54;100.00
58072;BME280;60383;46.626;18.866;2024-03-08T04:41:57;100729.75;;;5.71;100.00
58072;BME280;60383;46.626;18.866;2024-03-08T04:44:24;100734.38;;;5.82;100.00
58072;BME280;60383;46.626;18.866;2024-03-08T04:46:50;100731.69;;;5.57;100.00
58072;BME280;60383;46.626;18.866;2024-03-08T04:49:15;100735.78;;;5.52;100.00
58072;BME280;60383;46.626;18.866;2024-03-08T04:51:41;100742.97;;;5.64;100.00
58072;BME280;60383;46.626;18.866;2024-03-08T04:54:06;100739.94;;;5.80;100.00
58072;BME280;60383;46.626;18.866;2024-03-08T04:56:32;100744.53;;;5.91;100.00
58072;BME280;60383;46.626;18.866;2024-03-08T04:58:58;100742.31;;;5.85;100.00
58072;BME280;60383;46.626;18.866;2024-03-08T05:01:23;100740.34;;;5.87;100.00
58072;BME280;60383;46.626;18.866;2024-03-08T05:03:49;100744.41;;;5.92;100.00
58072;BME280;60383;46.626;18.866;2024-03-08T05:06:16;100747.38;;;5.89;100.00
58072;BME280;60383;46.626;18.866;2024-03-08T05:08:41;100745.56;;;5.66;100.00
58072;BME280;60383;46.626;18.866;2024-03-08T05:11:07;100745.69;;;5.64;100.00
58072;BME280;60383;46.626;18.866;2024-03-08T05:13:32;100742.56;;;5.57;100.00
58072;BME280;60383;46.626;18.866;2024-03-08T05:15:59;100744.88;;;5.75;100.00
58072;BME280;60383;46.626;18.866;2024-03-08T05:18:25;100745.22;;;5.70;100.00
58072;BME280;60383;46.626;18.866;2024-03-08T05:20:50;100747.16;;;5.33;100.00
58072;BME280;60383;46.626;18.866;2024-03-08T05:23:16;100753.41;;;5.22;100.00
58072;BME280;60383;46.626;18.866;2024-03-08T05:25:45;100749.00;;;5.32;100.00
58072;BME280;60383;46.626;18.866;2024-03-08T05:28:12;100754.19;;;5.35;100.00
58072;BME280;60383;46.626;18.866;2024-03-08T05:30:38;100754.16;;;5.48;100.00
58072;BME280;60383;46.626;18.866;2024-03-08T05:33:04;100759.34;;;5.51;100.00
58072;BME280;60383;46.626;18.866;2024-03-08T05:35:29;100753.88;;;5.75;100.00
58072;BME280;60383;46.626;18.866;2024-03-08T05:37:55;100763.75;;;5.76;100.00
58072;BME280;60383;46.626;18.866;2024-03-08T05:40:21;100761.19;;;5.75;100.00
58072;BME280;60383;46.626;18.866;2024-03-08T05:42:46;100762.91;;;5.76;100.00
58072;BME280;60383;46.626;18.866;2024-03-08T05:45:12;100750.84;;;5.56;100.00
58072;BME280;60383;46.626;18.866;2024-03-08T05:47:39;100757.34;;;5.42;100.00
58072;BME280;60383;46.626;18.866;2024-03-08T05:50:05;100763.28;;;5.47;100.00
58072;BME280;60383;46.626;18.866;2024-03-08T05:52:32;100762.84;;;5.65;100.00
58072;BME280;60383;46.626;18.866;2024-03-08T05:54:58;100763.00;;;5.74;100.00
58072;BME280;60383;46.626;18.866;2024-03-08T05:57:24;100772.44;;;5.57;100.00
58072;BME280;60383;46.626;18.866;2024-03-08T05:59:49;100776.28;;;5.55;100.00
58072;BME280;60383;46.626;18.866;2024-03-08T06:02:14;100774.16;;;5.47;100.00
58072;BME280;60383;46.626;18.866;2024-03-08T06:04:45;100773.25;;;5.71;100.00
58072;BME280;60383;46.626;18.866;2024-03-08T06:07:12;100775.63;;;5.27;100.00
58072;BME280;60383;46.626;18.866;2024-03-08T06:09:38;100772.91;;;5.51;100.00
58072;BME280;60383;46.626;18.866;2024-03-08T06:12:03;100776.22;;;5.43;100.00
58072;BME280;60383;46.626;18.866;2024-03-08T06:14:30;100778.69;;;5.71;100.00
58072;BME280;60383;46.626;18.866;2024-03-08T06:16:55;100779.63;;;5.58;100.00
58072;BME280;60383;46.626;18.866;2024-03-08T06:19:21;100776.59;;;5.74;100.00
58072;BME280;60383;46.626;18.866;2024-03-08T06:21:46;100788.81;;;5.69;100.00
58072;BME280;60383;46.626;18.866;2024-03-08T06:24:11;100775.75;;;5.74;100.00
58072;BME280;60383;46.626;18.866;2024-03-08T06:26:37;100785.28;;;5.80;100.00
58072;BME280;60383;46.626;18.866;2024-03-08T06:29:03;100785.94;;;5.59;100.00
58072;BME280;60383;46.626;18.866;2024-03-08T06:31:32;100785.41;;;5.54;100.00
58072;BME280;60383;46.626;18.866;2024-03-08T06:33:57;100789.94;;;5.66;100.00
58072;BME280;60383;46.626;18.866;2024-03-08T06:36:23;100789.94;;;5.42;100.00
58072;BME280;60383;46.626;18.866;2024-03-08T06:38:49;100787.00;;;5.56;100.00
58072;BME280;60383;46.626;18.866;2024-03-08T06:41:15;100795.53;;;5.52;100.00
58072;BME280;60383;46.626;18.866;2024-03-08T06:43:44;100795.00;;;5.47;100.00
58072;BME280;60383;46.626;18.866;2024-03-08T06:46:11;100789.16;;;5.40;100.00
58072;BME280;60383;46.626;18.866;2024-03-08T06:48:39;100791.47;;;5.33;100.00
58072;BME280;60383;46.626;18.866;2024-03-08T06:51:05;100798.13;;;5.53;100.00
58072;BME280;60383;46.626;18.866;2024-03-08T06:53:31;100807.09;;;5.42;100.00
58072;BME280;60383;46.626;18.866;2024-03-08T06:55:59;100805.47;;;5.40;100.00
58072;BME280;60383;46.626;18.866;2024-03-08T06:58:25;100809.13;;;5.52;100.00
58072;BME280;60383;46.626;18.866;2024-03-08T07:00:50;100803.16;;;5.71;100.00
58072;BME280;60383;46.626;18.866;2024-03-08T07:03:17;100807.94;;;5.67;100.00
58072;BME280;60383;46.626;18.866;2024-03-08T07:05:43;100810.84;;;5.53;100.00
58072;BME280;60383;46.626;18.866;2024-03-08T07:08:08;100808.06;;;5.41;100.00
58072;BME280;60383;46.626;18.866;2024-03-08T07:10:34;100801.06;;;5.26;100.00
58072;BME280;60383;46.626;18.866;2024-03-08T07:13:00;100806.38;;;5.27;100.00
58072;BME280;60383;46.626;18.866;2024-03-08T07:15:27;100813.97;;;5.35;100.00
58072;BME280;60383;46.626;18.866;2024-03-08T07:17:54;100810.75;;;5.54;100.00
58072;BME280;60383;46.626;18.866;2024-03-08T07:20:20;100813.28;;;5.44;100.00
58072;BME280;60383;46.626;18.866;2024-03-08T07:22:47;100806.66;;;5.36;100.00
58072;BME280;60383;46.626;18.866;2024-03-08T07:25:13;100807.25;;;5.52;100.00
58072;BME280;60383;46.626;18.866;2024-03-08T07:27:50;100806.44;;;5.63;100.00
58072;BME280;60383;46.626;18.866;2024-03-08T07:30:17;100810.94;;;5.75;100.00
58072;BME280;60383;46.626;18.866;2024-03-08T07:33:02;100814.00;;;5.71;100.00
58072;BME280;60383;46.626;18.866;2024-03-08T07:35:28;100809.53;;;5.94;100.00
58072;BME280;60383;46.626;18.866;2024-03-08T07:37:54;100807.09;;;5.67;100.00
58072;BME280;60383;46.626;18.866;2024-03-08T07:40:21;100808.66;;;5.58;100.00
58072;BME280;60383;46.626;18.866;2024-03-08T07:42:46;100814.72;;;5.62;100.00
58072;BME280;60383;46.626;18.866;2024-03-08T07:45:12;100817.44;;;5.62;100.00
58072;BME280;60383;46.626;18.866;2024-03-08T07:47:38;100813.78;;;5.74;100.00
58072;BME280;60383;46.626;18.866;2024-03-08T07:50:04;100813.34;;;5.91;100.00
58072;BME280;60383;46.626;18.866;2024-03-08T07:52:29;100810.25;;;6.09;100.00
58072;BME280;60383;46.626;18.866;2024-03-08T07:54:55;100808.63;;;6.06;100.00
58072;BME280;60383;46.626;18.866;2024-03-08T07:57:20;100805.78;;;6.08;100.00
58072;BME280;60383;46.626;18.866;2024-03-08T07:59:46;100804.69;;;6.22;100.00
58072;BME280;60383;46.626;18.866;2024-03-08T08:02:11;100813.97;;;5.84;100.00
58072;BME280;60383;46.626;18.866;2024-03-08T08:04:37;100810.47;;;6.06;100.00
58072;BME280;60383;46.626;18.866;2024-03-08T08:07:04;100810.34;;;6.07;100.00
58072;BME280;60383;46.626;18.866;2024-03-08T08:09:29;100806.78;;;6.18;100.00
58072;BME280;60383;46.626;18.866;2024-03-08T08:12:00;100816.22;;;6.26;100.00
58072;BME280;60383;46.626;18.866;2024-03-08T08:14:27;100808.00;;;6.03;100.00
58072;BME280;60383;46.626;18.866;2024-03-08T08:16:54;100813.06;;;6.07;100.00
58072;BME280;60383;46.626;18.866;2024-03-08T08:19:21;100811.03;;;6.22;100.00
58072;BME280;60383;46.626;18.866;2024-03-08T08:21:46;100814.84;;;6.20;100.00
58072;BME280;60383;46.626;18.866;2024-03-08T08:24:12;100819.75;;;6.03;100.00
58072;BME280;60383;46.626;18.866;2024-03-08T08:26:37;100809.38;;;6.08;100.00
58072;BME280;60383;46.626;18.866;2024-03-08T08:29:03;100817.53;;;6.08;100.00
58072;BME280;60383;46.626;18.866;2024-03-08T08:31:29;100810.25;;;6.09;100.00
58072;BME280;60383;46.626;18.866;2024-03-08T08:33:57;100815.63;;;6.33;100.00
58072;BME280;60383;46.626;18.866;2024-03-08T08:36:25;100814.16;;;6.41;100.00
58072;BME280;60383;46.626;18.866;2024-03-08T08:38:51;100803.16;;;6.31;100.00
58072;BME280;60383;46.626;18.866;2024-03-08T08:41:19;100816.03;;;6.63;100.00
58072;BME280;60383;46.626;18.866;2024-03-08T08:43:46;100813.53;;;6.60;100.00
58072;BME280;60383;46.626;18.866;2024-03-08T08:46:11;100814.78;;;6.44;100.00
58072;BME280;60383;46.626;18.866;2024-03-08T08:48:39;100812.38;;;6.28;100.00
58072;BME280;60383;46.626;18.866;2024-03-08T08:51:10;100817.50;;;6.55;100.00
58072;BME280;60383;46.626;18.866;2024-03-08T08:53:41;100809.06;;;6.36;100.00
58072;BME280;60383;46.626;18.866;2024-03-08T08:56:14;100812.56;;;6.38;100.00
58072;BME280;60383;46.626;18.866;2024-03-08T08:58:44;100811.09;;;6.57;100.00
58072;BME280;60383;46.626;18.866;2024-03-08T09:01:10;100812.13;;;6.20;100.00
58072;BME280;60383;46.626;18.866;2024-03-08T09:03:37;100809.16;;;6.23;100.00
58072;BME280;60383;46.626;18.866;2024-03-08T09:06:05;100812.91;;;6.33;100.00
58072;BME280;60383;46.626;18.866;2024-03-08T09:08:30;100806.22;;;6.37;100.00
58072;BME280;60383;46.626;18.866;2024-03-08T09:10:56;100808.31;;;6.34;100.00
58072;BME280;60383;46.626;18.866;2024-03-08T09:13:21;100811.66;;;6.37;100.00
58072;BME280;60383;46.626;18.866;2024-03-08T09:15:48;100809.56;;;6.30;100.00
58072;BME280;60383;46.626;18.866;2024-03-08T09:18:13;100809.00;;;6.13;100.00
58072;BME280;60383;46.626;18.866;2024-03-08T09:20:39;100807.81;;;6.29;100.00
58072;BME280;60383;46.626;18.866;2024-03-08T09:23:06;100802.88;;;6.22;100.00
58072;BME280;60383;46.626;18.866;2024-03-08T09:25:33;100808.53;;;6.19;100.00
58072;BME280;60383;46.626;18.866;2024-03-08T09:27:59;100813.19;;;6.53;100.00
58072;BME280;60383;46.626;18.866;2024-03-08T09:30:25;100809.13;;;6.59;100.00
58072;BME280;60383;46.626;18.866;2024-03-08T09:32:50;100807.50;;;6.67;100.00
58072;BME280;60383;46.626;18.866;2024-03-08T09:35:16;100806.75;;;6.65;100.00
58072;BME280;60383;46.626;18.866;2024-03-08T09:37:42;100812.44;;;6.51;100.00
58072;BME280;60383;46.626;18.866;2024-03-08T09:40:07;100806.22;;;6.37;100.00
58072;BME280;60383;46.626;18.866;2024-03-08T09:42:43;100809.34;;;6.44;100.00
58072;BME280;60383;46.626;18.866;2024-03-08T09:45:11;100803.91;;;6.44;100.00
58072;BME280;60383;46.626;18.866;2024-03-08T09:47:41;100809.88;;;6.72;100.00
58072;BME280;60383;46.626;18.866;2024-03-08T09:50:07;100807.06;;;6.27;100.00
58072;BME280;60383;46.626;18.866;2024-03-08T09:52:38;100813.63;;;6.24;100.00
58072;BME280;60383;46.626;18.866;2024-03-08T09:55:05;100813.34;;;6.16;100.00
58072;BME280;60383;46.626;18.866;2024-03-08T09:57:33;100813.53;;;6.37;100.00
58072;BME280;60383;46.626;18.866;2024-03-08T09:59:59;100817.38;;;6.46;100.00
58072;BME280;60383;46.626;18.866;2024-03-08T10:02:24;100814.41;;;6.49;100.00
58072;BME280;60383;46.626;18.866;2024-03-08T10:04:51;100812.34;;;6.64;100.00
58072;BME280;60383;46.626;18.866;2024-03-08T10:07:18;100818.75;;;6.63;100.00
58072;BME280;60383;46.626;18.866;2024-03-08T10:09:44;100821.00;;;6.69;100.00
58072;BME280;60383;46.626;18.866;2024-03-08T10:12:16;100826.66;;;6.54;100.00
58072;BME280;60383;46.626;18.866;2024-03-08T10:14:42;100815.31;;;6.72;99.73
58072;BME280;60383;46.626;18.866;2024-03-08T10:17:08;100822.84;;;6.80;100.00
58072;BME280;60383;46.626;18.866;2024-03-08T10:19:33;100820.59;;;6.51;100.00
58072;BME280;60383;46.626;18.866;2024-03-08T10:21:59;100816.88;;;6.63;100.00
58072;BME280;60383;46.626;18.866;2024-03-08T10:24:25;100818.63;;;6.53;100.00
58072;BME280;60383;46.626;18.866;2024-03-08T10:26:52;100827.66;;;6.53;100.00
58072;BME280;60383;46.626;18.866;2024-03-08T10:29:19;100824.19;;;6.63;100.00
58072;BME280;60383;46.626;18.866;2024-03-08T10:31:45;100825.81;;;6.77;100.00
58072;BME280;60383;46.626;18.866;2024-03-08T10:34:10;100825.59;;;6.68;100.00
58072;BME280;60383;46.626;18.866;2024-03-08T10:36:36;100826.38;;;6.35;99.37
58072;BME280;60383;46.626;18.866;2024-03-08T10:39:13;100824.78;;;6.32;100.00
58072;BME280;60383;46.626;18.866;2024-03-08T10:41:43;100822.88;;;6.21;100.00
58072;BME280;60383;46.626;18.866;2024-03-08T10:44:31;100816.06;;;6.16;100.00
58072;BME280;60383;46.626;18.866;2024-03-08T10:49:39;100826.09;;;6.27;100.00
58072;BME280;60383;46.626;18.866;2024-03-08T10:52:10;100821.16;;;6.20;100.00
58072;BME280;60383;46.626;18.866;2024-03-08T10:54:37;100817.31;;;6.23;100.00
58072;BME280;60383;46.626;18.866;2024-03-08T10:57:06;100807.69;;;6.19;100.00
58072;BME280;60383;46.626;18.866;2024-03-08T10:59:34;100810.69;;;6.27;100.00
58072;BME280;60383;46.626;18.866;2024-03-08T11:02:00;100811.31;;;6.31;100.00
58072;BME280;60383;46.626;18.866;2024-03-08T11:04:26;100808.94;;;6.37;100.00
58072;BME280;60383;46.626;18.866;2024-03-08T11:07:00;100809.84;;;6.38;100.00
58072;BME280;60383;46.626;18.866;2024-03-08T11:09:32;100810.47;;;6.53;100.00
58072;BME280;60383;46.626;18.866;2024-03-08T11:12:37;100809.94;;;6.36;100.00
58072;BME280;60383;46.626;18.866;2024-03-08T11:15:10;100805.66;;;6.57;100.00
58072;BME280;60383;46.626;18.866;2024-03-08T11:20:12;100805.19;;;6.16;100.00
58072;BME280;60383;46.626;18.866;2024-03-08T11:22:52;100803.56;;;6.13;100.00
58072;BME280;60383;46.626;18.866;2024-03-08T11:25:40;100800.28;;;6.44;100.00
58072;BME280;60383;46.626;18.866;2024-03-08T11:28:17;100795.13;;;6.63;100.00
58072;BME280;60383;46.626;18.866;2024-03-08T11:33:26;100788.84;;;6.85;100.00
58072;BME280;60383;46.626;18.866;2024-03-08T11:35:52;100790.69;;;6.62;100.00
58072;BME280;60383;46.626;18.866;2024-03-08T11:38:18;100794.00;;;6.43;100.00
58072;BME280;60383;46.626;18.866;2024-03-08T11:40:46;100796.22;;;6.49;100.00
58072;BME280;60383;46.626;18.866;2024-03-08T11:43:16;100792.13;;;6.44;100.00
58072;BME280;60383;46.626;18.866;2024-03-08T11:45:41;100793.50;;;6.61;100.00
58072;BME280;60383;46.626;18.866;2024-03-08T11:48:07;100788.94;;;6.72;100.00
58072;BME280;60383;46.626;18.866;2024-03-08T11:50:32;100786.00;;;6.76;100.00
58072;BME280;60383;46.626;18.866;2024-03-08T11:53:04;100787.47;;;6.68;100.00
58072;BME280;60383;46.626;18.866;2024-03-08T11:55:33;100794.28;;;6.51;100.00
58072;BME280;60383;46.626;18.866;2024-03-08T11:58:02;100794.38;;;6.38;100.00
58072;BME280;60383;46.626;18.866;2024-03-08T12:00:29;100786.81;;;6.42;100.00
58072;BME280;60383;46.626;18.866;2024-03-08T12:03:04;100783.00;;;6.56;100.00
58072;BME280;60383;46.626;18.866;2024-03-08T12:05:30;100787.09;;;6.62;100.00
58072;BME280;60383;46.626;18.866;2024-03-08T12:08:02;100785.59;;;6.58;100.00
58072;BME280;60383;46.626;18.866;2024-03-08T12:10:27;100786.91;;;6.18;100.00
58072;BME280;60383;46.626;18.866;2024-03-08T12:12:55;100781.75;;;6.49;100.00
58072;BME280;60383;46.626;18.866;2024-03-08T12:15:25;100784.00;;;5.97;100.00
58072;BME280;60383;46.626;18.866;2024-03-08T12:17:53;100783.28;;;6.06;100.00
58072;BME280;60383;46.626;18.866;2024-03-08T12:20:24;100784.38;;;6.03;100.00
58072;BME280;60383;46.626;18.866;2024-03-08T12:22:57;100787.69;;;5.96;100.00
58072;BME280;60383;46.626;18.866;2024-03-08T12:25:32;100776.69;;;5.97;100.00
58072;BME280;60383;46.626;18.866;2024-03-08T12:28:08;100773.97;;;5.97;100.00
58072;BME280;60383;46.626;18.866;2024-03-08T12:33:11;100771.91;;;6.12;100.00
58072;BME280;60383;46.626;18.866;2024-03-08T12:35:38;100767.03;;;6.40;100.00
58072;BME280;60383;46.626;18.866;2024-03-08T12:38:04;100766.44;;;6.59;100.00
58072;BME280;60383;46.626;18.866;2024-03-08T12:40:32;100763.31;;;6.41;100.00
58072;BME280;60383;46.626;18.866;2024-03-08T12:43:00;100763.22;;;6.54;100.00
58072;BME280;60383;46.626;18.866;2024-03-08T12:45:26;100765.41;;;6.49;100.00
58072;BME280;60383;46.626;18.866;2024-03-08T12:47:55;100768.03;;;6.50;100.00
58072;BME280;60383;46.626;18.866;2024-03-08T12:50:22;100759.75;;;6.41;100.00